Time,TemperatureF,DewpointF,PressureIn,WindDirection,WindDirectionDegrees,WindSpeedMPH,WindSpeedGustMPH,Humidity,HourlyPrecipIn,Conditions,Clouds,dailyrainin,SolarRadiationWatts/m^2,SoftwareType,DateUTC
2013-06-13 00:02:00,46.0,44.0,-100.00,NE,50,1.0,6.0,91,0.00,,,0.10,0.000000,,2013-06-13 06:02:00,
2013-06-13 00:33:00,46.0,42.0,-100.00,NE,47,1.0,9.0,87,0.00,,,0.10,0.000000,,2013-06-13 06:33:00,
2013-06-13 00:44:00,46.0,42.0,-100.00,NE,47,1.0,9.0,87,0.00,,,0.10,0.000000,,2013-06-13 06:44:00,
2013-06-13 00:52:00,46.0,42.0,-100.00,NE,47,1.0,9.0,87,0.00,,,0.10,0.000000,,2013-06-13 06:52:00,
2013-06-13 01:01:00,46.0,42.0,-100.00,NE,47,1.0,9.0,87,0.00,,,0.10,0.000000,,2013-06-13 07:01:00,
2013-06-13 01:33:00,48.0,44.0,-100.00,South,185,1.0,6.0,87,0.00,,,0.10,0.000000,,2013-06-13 07:33:00,
2013-06-13 01:42:00,48.0,44.0,-100.00,South,185,1.0,6.0,87,0.00,,,0.10,0.000000,,2013-06-13 07:42:00,
2013-06-13 01:52:00,48.0,44.0,-100.00,South,185,1.0,6.0,87,0.00,,,0.10,0.000000,,2013-06-13 07:52:00,
2013-06-13 02:01:00,48.0,44.0,-100.00,South,185,1.0,6.0,87,0.00,,,0.10,0.000000,,2013-06-13 08:01:00,
2013-06-13 02:32:00,46.0,43.0,-100.00,ENE,74,1.0,3.0,90,0.00,,,0.10,0.000000,,2013-06-13 08:32:00,
2013-06-13 02:43:00,46.0,43.0,-100.00,ENE,74,1.0,3.0,90,0.00,,,0.10,0.000000,,2013-06-13 08:43:00,
2013-06-13 02:52:00,46.0,43.0,-100.00,ENE,74,1.0,3.0,90,0.00,,,0.10,0.000000,,2013-06-13 08:52:00,
2013-06-13 03:01:00,46.0,43.0,-100.00,ENE,74,1.0,3.0,90,0.00,,,0.10,0.000000,,2013-06-13 09:01:00,
2013-06-13 03:32:00,48.0,45.0,-100.00,East,87,1.0,4.0,90,0.00,,,0.10,0.000000,,2013-06-13 09:32:00,
2013-06-13 03:42:00,48.0,45.0,-100.00,East,87,1.0,4.0,90,0.00,,,0.10,0.000000,,2013-06-13 09:42:00,
2013-06-13 03:52:00,48.0,45.0,-100.00,East,87,1.0,4.0,90,0.00,,,0.10,0.000000,,2013-06-13 09:52:00,
2013-06-13 04:01:00,48.0,45.0,-100.00,East,87,1.0,4.0,90,0.00,,,0.10,0.000000,,2013-06-13 10:01:00,
2013-06-13 04:33:00,46.0,41.0,-100.00,NNW,340,1.0,6.0,83,0.00,,,0.10,0.000000,,2013-06-13 10:33:00,
2013-06-13 04:43:00,46.0,41.0,-100.00,NNW,340,1.0,6.0,83,0.00,,,0.10,0.000000,,2013-06-13 10:43:00,
2013-06-13 04:53:00,46.0,41.0,-100.00,NNW,340,1.0,6.0,83,0.00,,,0.10,0.000000,,2013-06-13 10:53:00,
2013-06-13 05:01:00,46.0,41.0,-100.00,NNW,340,1.0,6.0,83,0.00,,,0.10,0.000000,,2013-06-13 11:01:00,
2013-06-13 05:24:00,49.0,40.0,-100.00,WSW,237,1.0,6.0,72,0.00,,,0.10,0.000000,,2013-06-13 11:24:00,
2013-06-13 05:32:00,49.0,40.0,-100.00,WSW,237,1.0,6.0,72,0.00,,,0.10,0.000000,,2013-06-13 11:32:00,
2013-06-13 05:42:00,49.0,40.0,-100.00,WSW,237,1.0,6.0,72,0.00,,,0.10,0.000000,,2013-06-13 11:42:00,
2013-06-13 05:52:00,49.0,40.0,-100.00,WSW,237,1.0,6.0,72,0.00,,,0.10,0.000000,,2013-06-13 11:52:00,
2013-06-13 06:01:00,49.0,40.0,-100.00,WSW,237,1.0,6.0,72,0.00,,,0.10,0.000000,,2013-06-13 12:01:00,
2013-06-13 07:33:00,46.0,43.0,-100.00,East,80,2.0,6.0,88,-99.99,,,0.09,27.000000,,2013-06-13 13:33:00,
2013-06-13 07:43:00,46.0,43.0,-100.00,East,80,2.0,6.0,88,-99.99,,,0.09,27.000000,,2013-06-13 13:43:00,
2013-06-13 07:53:00,46.0,43.0,-100.00,East,80,2.0,6.0,88,-99.99,,,0.09,27.000000,,2013-06-13 13:53:00,
2013-06-13 08:01:00,46.0,43.0,-100.00,East,80,2.0,6.0,88,-99.99,,,0.09,27.000000,,2013-06-13 14:01:00,
2013-06-13 08:43:00,53.0,47.0,-100.00,SW,229,2.0,6.0,81,0.01,,,0.10,130.000000,,2013-06-13 14:43:00,
2013-06-13 08:53:00,53.0,47.0,-100.00,SW,229,2.0,6.0,81,0.01,,,0.10,130.000000,,2013-06-13 14:53:00,
2013-06-13 09:01:00,53.0,47.0,-100.00,SW,229,2.0,6.0,81,0.01,,,0.10,130.000000,,2013-06-13 15:01:00,
2013-06-13 09:22:00,57.0,43.0,-100.00,SW,216,5.0,15.0,59,0.01,,,0.11,186.000000,,2013-06-13 15:22:00,
2013-06-13 10:22:00,67.0,50.0,-100.00,West,266,1.0,15.0,54,0.00,,,0.11,616.000000,,2013-06-13 16:22:00,
2013-06-13 11:33:00,66.0,43.0,-100.00,SW,219,2.0,8.0,43,-99.99,,,0.11,604.000000,,2013-06-13 17:33:00,
2013-06-13 11:43:00,66.0,43.0,-100.00,SW,219,2.0,8.0,43,-99.99,,,0.11,604.000000,,2013-06-13 17:43:00,
2013-06-13 11:53:00,66.0,43.0,-100.00,SW,219,2.0,8.0,43,-99.99,,,0.11,604.000000,,2013-06-13 17:53:00,
2013-06-13 12:02:00,66.0,43.0,-100.00,SW,219,2.0,8.0,43,-99.99,,,0.11,604.000000,,2013-06-13 18:02:00,
2013-06-13 12:33:00,71.0,42.0,-100.00,SW,230,4.0,13.0,35,0.00,,,0.11,732.000000,,2013-06-13 18:33:00,
2013-06-13 12:43:00,71.0,42.0,-100.00,SW,230,4.0,13.0,35,0.00,,,0.11,732.000000,,2013-06-13 18:43:00,
2013-06-13 12:52:00,71.0,42.0,-100.00,SW,230,4.0,13.0,35,0.00,,,0.11,732.000000,,2013-06-13 18:52:00,
2013-06-13 13:01:00,71.0,42.0,-100.00,SW,230,4.0,13.0,35,0.00,,,0.11,732.000000,,2013-06-13 19:01:00,
2013-06-13 13:22:00,64.0,52.0,-100.00,WSW,255,2.0,18.0,64,0.00,,,0.11,436.000000,,2013-06-13 19:22:00,
2013-06-13 13:33:00,64.0,52.0,-100.00,WSW,255,2.0,18.0,64,0.00,,,0.11,436.000000,,2013-06-13 19:33:00,
2013-06-13 13:43:00,64.0,52.0,-100.00,WSW,255,2.0,18.0,64,0.00,,,0.11,436.000000,,2013-06-13 19:43:00,
2013-06-13 13:53:00,64.0,52.0,-100.00,WSW,255,2.0,18.0,64,0.00,,,0.11,436.000000,,2013-06-13 19:53:00,
2013-06-13 14:01:00,64.0,52.0,-100.00,WSW,255,2.0,18.0,64,0.00,,,0.11,436.000000,,2013-06-13 20:01:00,
2013-06-13 14:22:00,63.0,58.0,-100.00,WSW,248,2.0,7.0,84,0.01,,,0.11,406.000000,,2013-06-13 20:22:00,
2013-06-13 15:34:00,64.0,50.0,-100.00,NW,316,2.0,8.0,61,-99.99,,,0.08,584.000000,,2013-06-13 21:34:00,
2013-06-13 15:43:00,64.0,50.0,-100.00,NW,316,2.0,8.0,61,-99.99,,,0.08,584.000000,,2013-06-13 21:43:00,
2013-06-13 15:52:00,64.0,50.0,-100.00,NW,316,2.0,8.0,61,-99.99,,,0.08,584.000000,,2013-06-13 21:52:00,
2013-06-13 16:01:00,64.0,50.0,-100.00,NW,316,2.0,8.0,61,-99.99,,,0.08,584.000000,,2013-06-13 22:01:00,
2013-06-13 16:33:00,69.0,46.0,-100.00,WSW,250,2.0,12.0,44,0.00,,,0.07,911.000000,,2013-06-13 22:33:00,
2013-06-13 16:43:00,69.0,46.0,-100.00,WSW,250,2.0,12.0,44,0.00,,,0.07,911.000000,,2013-06-13 22:43:00,
2013-06-13 16:52:00,69.0,46.0,-100.00,WSW,250,2.0,12.0,44,0.00,,,0.07,911.000000,,2013-06-13 22:52:00,
2013-06-13 17:01:00,69.0,46.0,-100.00,WSW,250,2.0,12.0,44,0.00,,,0.07,911.000000,,2013-06-13 23:01:00,
2013-06-13 17:22:00,66.0,42.0,-100.00,WSW,244,2.0,9.0,41,0.00,,,0.07,511.000000,,2013-06-13 23:22:00,
2013-06-13 17:32:00,66.0,42.0,-100.00,WSW,244,2.0,9.0,41,0.00,,,0.07,511.000000,,2013-06-13 23:32:00,
2013-06-13 17:43:00,66.0,42.0,-100.00,WSW,244,2.0,9.0,41,0.00,,,0.07,511.000000,,2013-06-13 23:43:00,
2013-06-13 17:52:00,66.0,42.0,-100.00,WSW,244,2.0,9.0,41,0.00,,,0.07,511.000000,,2013-06-13 23:52:00,
2013-06-13 18:01:00,66.0,42.0,-100.00,WSW,244,2.0,9.0,41,0.00,,,0.07,511.000000,,2013-06-14 00:01:00,
2013-06-13 18:34:00,61.0,41.0,-100.00,WSW,248,1.0,9.0,47,0.00,,,0.03,324.000000,,2013-06-14 00:34:00,
2013-06-13 18:43:00,61.0,41.0,-100.00,WSW,248,1.0,9.0,47,0.00,,,0.03,324.000000,,2013-06-14 00:43:00,
2013-06-13 18:53:00,61.0,41.0,-100.00,WSW,248,1.0,9.0,47,0.00,,,0.03,324.000000,,2013-06-14 00:53:00,
2013-06-13 19:01:00,61.0,41.0,-100.00,WSW,248,1.0,9.0,47,0.00,,,0.03,324.000000,,2013-06-14 01:01:00,
2013-06-13 19:22:00,57.0,39.0,-100.00,WSW,243,2.0,8.0,50,0.00,,,0.03,62.000000,,2013-06-14 01:22:00,
2013-06-13 19:33:00,57.0,39.0,-100.00,WSW,243,2.0,8.0,50,0.00,,,0.03,62.000000,,2013-06-14 01:33:00,
2013-06-13 19:43:00,57.0,39.0,-100.00,WSW,243,2.0,8.0,50,0.00,,,0.03,62.000000,,2013-06-14 01:43:00,
2013-06-13 19:52:00,57.0,39.0,-100.00,WSW,243,2.0,8.0,50,0.00,,,0.03,62.000000,,2013-06-14 01:52:00,
2013-06-13 20:01:00,57.0,39.0,-100.00,WSW,243,2.0,8.0,50,0.00,,,0.03,62.000000,,2013-06-14 02:01:00,
2013-06-13 20:22:00,52.0,34.0,-100.00,WSW,246,3.0,13.0,51,0.00,,,0.03,20.000000,,2013-06-14 02:22:00,
2013-06-13 20:33:00,52.0,34.0,-100.00,WSW,246,3.0,13.0,51,0.00,,,0.03,20.000000,,2013-06-14 02:33:00,
2013-06-13 20:43:00,52.0,34.0,-100.00,WSW,246,3.0,13.0,51,0.00,,,0.03,20.000000,,2013-06-14 02:43:00,
2013-06-13 20:52:00,52.0,34.0,-100.00,WSW,246,3.0,13.0,51,0.00,,,0.03,20.000000,,2013-06-14 02:52:00,
2013-06-13 21:02:00,52.0,34.0,-100.00,WSW,246,3.0,13.0,51,0.00,,,0.03,20.000000,,2013-06-14 03:02:00,
2013-06-13 21:43:00,44.0,40.0,-100.00,NE,40,1.0,14.0,87,0.01,,,0.04,1.000000,,2013-06-14 03:43:00,
2013-06-13 21:53:00,44.0,40.0,-100.00,NE,40,1.0,14.0,87,0.01,,,0.04,1.000000,,2013-06-14 03:53:00,
2013-06-13 22:01:00,44.0,40.0,-100.00,NE,40,1.0,14.0,87,0.01,,,0.04,1.000000,,2013-06-14 04:01:00,
2013-06-13 22:23:00,42.0,40.0,-100.00,WSW,237,2.0,11.0,93,0.05,,,0.09,0.000000,,2013-06-14 04:23:00,
2013-06-13 22:33:00,42.0,40.0,-100.00,WSW,237,2.0,11.0,93,0.05,,,0.09,0.000000,,2013-06-14 04:33:00,
2013-06-13 22:43:00,42.0,40.0,-100.00,WSW,237,2.0,11.0,93,0.05,,,0.09,0.000000,,2013-06-14 04:43:00,
2013-06-13 22:53:00,42.0,40.0,-100.00,WSW,237,2.0,11.0,93,0.05,,,0.09,0.000000,,2013-06-14 04:53:00,
2013-06-13 23:01:00,42.0,40.0,-100.00,WSW,237,2.0,11.0,93,0.05,,,0.09,0.000000,,2013-06-14 05:01:00,
2013-06-13 23:22:00,41.0,39.0,-100.00,NW,315,2.0,13.0,91,0.01,,,0.10,0.000000,,2013-06-14 05:22:00,
2013-06-13 23:34:00,41.0,39.0,-100.00,NW,315,2.0,13.0,91,0.01,,,0.10,0.000000,,2013-06-14 05:34:00,
2013-06-13 23:43:00,41.0,39.0,-100.00,NW,315,2.0,13.0,91,0.01,,,0.10,0.000000,,2013-06-14 05:43:00,
2013-06-13 23:52:00,41.0,39.0,-100.00,NW,315,2.0,13.0,91,0.01,,,0.10,0.000000,,2013-06-14 05:52:00,